sensor_id;sensor_type;location;lat;lon;timestamp;pressure;altitude;pressure_sealevel;temperature;humidity
80682;BME280;70045;40.200;44.582;2023-09-07T00:01:28;86203.97;;;22.87;24.99
80682;BME280;70045;40.200;44.582;2023-09-07T00:03:56;86206.84;;;22.83;24.73
80682;BME280;70045;40.200;44.582;2023-09-07T00:06:22;86208.78;;;22.88;24.52
80682;BME280;70045;40.200;44.582;2023-09-07T00:08:47;86211.88;;;22.87;24.15
80682;BME280;70045;40.200;44.582;2023-09-07T00:11:12;86222.22;;;22.85;24.54
80682;BME280;70045;40.200;44.582;2023-09-07T00:13:38;86221.47;;;22.84;24.22
80682;BME280;70045;40.200;44.582;2023-09-07T00:16:06;86227.00;;;22.81;24.59
80682;BME280;70045;40.200;44.582;2023-09-07T00:18:32;86218.53;;;22.65;24.65
80682;BME280;70045;40.200;44.582;2023-09-07T00:20:59;86217.13;;;22.64;24.42
80682;BME280;70045;40.200;44.582;2023-09-07T00:23:24;86210.38;;;22.58;24.74
80682;BME280;70045;40.200;44.582;2023-09-07T00:25:49;86226.47;;;22.60;25.29
80682;BME280;70045;40.200;44.582;2023-09-07T00:28:17;86229.34;;;22.56;26.16
80682;BME280;70045;40.200;44.582;2023-09-07T00:30:43;86231.25;;;22.55;26.03
80682;BME280;70045;40.200;44.582;2023-09-07T00:33:09;86227.16;;;22.49;26.51
80682;BME280;70045;40.200;44.582;2023-09-07T00:35:35;86228.31;;;22.36;27.26
80682;BME280;70045;40.200;44.582;2023-09-07T00:38:00;86229.00;;;22.31;28.04
80682;BME280;70045;40.200;44.582;2023-09-07T00:40:30;86222.03;;;22.28;28.41
80682;BME280;70045;40.200;44.582;2023-09-07T00:42:55;86227.97;;;22.23;28.55
80682;BME280;70045;40.200;44.582;2023-09-07T00:45:21;86224.59;;;22.17;28.18
80682;BME280;70045;40.200;44.582;2023-09-07T00:47:47;86223.81;;;21.99;28.92
80682;BME280;70045;40.200;44.582;2023-09-07T00:50:12;86219.22;;;21.94;29.22
80682;BME280;70045;40.200;44.582;2023-09-07T00:52:42;86226.38;;;21.88;29.58
80682;BME280;70045;40.200;44.582;2023-09-07T00:55:08;86222.28;;;21.87;29.14
80682;BME280;70045;40.200;44.582;2023-09-07T00:57:34;86222.28;;;21.87;29.38
80682;BME280;70045;40.200;44.582;2023-09-07T01:00:00;86223.47;;;21.86;29.72
80682;BME280;70045;40.200;44.582;2023-09-07T01:02:25;86221.78;;;21.83;29.25
80682;BME280;70045;40.200;44.582;2023-09-07T01:04:53;86225.09;;;21.78;29.18
80682;BME280;70045;40.200;44.582;2023-09-07T01:07:29;86224.84;;;21.70;28.99
80682;BME280;70045;40.200;44.582;2023-09-07T01:09:59;86227.84;;;21.57;28.73
80682;BME280;70045;40.200;44.582;2023-09-07T01:12:26;86232.13;;;21.49;29.16
80682;BME280;70045;40.200;44.582;2023-09-07T01:14:51;86233.25;;;21.42;28.56
80682;BME280;70045;40.200;44.582;2023-09-07T01:17:19;86216.97;;;21.44;28.79
80682;BME280;70045;40.200;44.582;2023-09-07T01:19:46;86224.88;;;21.44;28.22
80682;BME280;70045;40.200;44.582;2023-09-07T01:22:13;86226.47;;;21.36;28.02
80682;BME280;70045;40.200;44.582;2023-09-07T01:24:39;86230.75;;;21.33;27.87
80682;BME280;70045;40.200;44.582;2023-09-07T01:27:06;86237.00;;;21.30;28.34
80682;BME280;70045;40.200;44.582;2023-09-07T01:29:34;86240.84;;;21.35;28.36
80682;BME280;70045;40.200;44.582;2023-09-07T01:32:00;86239.66;;;21.36;28.19
80682;BME280;70045;40.200;44.582;2023-09-07T01:34:25;86242.09;;;21.39;28.07
80682;BME280;70045;40.200;44.582;2023-09-07T01:36:50;86243.63;;;21.46;28.05
80682;BME280;70045;40.200;44.582;2023-09-07T01:39:16;86244.63;;;21.54;28.52
80682;BME280;70045;40.200;44.582;2023-09-07T01:41:44;86234.06;;;21.54;28.90
80682;BME280;70045;40.200;44.582;2023-09-07T01:44:09;86226.31;;;21.45;28.02
80682;BME280;70045;40.200;44.582;2023-09-07T01:46:35;86241.97;;;21.54;28.53
80682;BME280;70045;40.200;44.582;2023-09-07T01:49:00;86240.53;;;21.53;28.42
80682;BME280;70045;40.200;44.582;2023-09-07T01:51:25;86241.50;;;21.56;27.92
80682;BME280;70045;40.200;44.582;2023-09-07T01:53:54;86251.84;;;21.59;28.33
80682;BME280;70045;40.200;44.582;2023-09-07T01:56:20;86243.91;;;21.54;27.72
80682;BME280;70045;40.200;44.582;2023-09-07T01:58:45;86239.84;;;21.53;28.07
80682;BME280;70045;40.200;44.582;2023-09-07T02:01:27;86246.28;;;21.52;28.11
80682;BME280;70045;40.200;44.582;2023-09-07T02:03:56;86247.84;;;21.38;27.78
80682;BME280;70045;40.200;44.582;2023-09-07T02:06:21;86240.91;;;21.40;28.74
80682;BME280;70045;40.200;44.582;2023-09-07T02:08:47;86243.41;;;21.50;28.46
80682;BME280;70045;40.200;44.582;2023-09-07T02:11:12;86246.28;;;21.52;28.68
80682;BME280;70045;40.200;44.582;2023-09-07T02:13:41;86245.03;;;21.47;29.16
80682;BME280;70045;40.200;44.582;2023-09-07T02:16:09;86244.41;;;21.32;28.95
80682;BME280;70045;40.200;44.582;2023-09-07T02:18:36;86244.31;;;21.15;28.58
80682;BME280;70045;40.200;44.582;2023-09-07T02:21:02;86247.66;;;21.15;28.72
80682;BME280;70045;40.200;44.582;2023-09-07T02:23:29;86233.97;;;21.11;27.96
80682;BME280;70045;40.200;44.582;2023-09-07T02:25:54;86240.66;;;21.12;28.23
80682;BME280;70045;40.200;44.582;2023-09-07T02:28:23;86246.94;;;21.15;28.81
80682;BME280;70045;40.200;44.582;2023-09-07T02:30:49;86248.44;;;21.21;27.96
80682;BME280;70045;40.200;44.582;2023-09-07T02:33:14;86260.00;;;21.30;28.68
80682;BME280;70045;40.200;44.582;2023-09-07T02:35:40;86266.53;;;21.40;28.36
80682;BME280;70045;40.200;44.582;2023-09-07T02:38:05;86268.00;;;21.41;29.66
80682;BME280;70045;40.200;44.582;2023-09-07T02:40:41;86273.91;;;21.56;30.50
80682;BME280;70045;40.200;44.582;2023-09-07T02:43:06;86275.13;;;21.61;29.32
80682;BME280;70045;40.200;44.582;2023-09-07T02:45:32;86270.63;;;21.67;29.03
80682;BME280;70045;40.200;44.582;2023-09-07T02:47:57;86268.00;;;21.73;29.01
80682;BME280;70045;40.200;44.582;2023-09-07T02:50:23;86270.47;;;21.82;28.49
80682;BME280;70045;40.200;44.582;2023-09-07T02:52:51;86271.44;;;21.85;28.79
80682;BME280;70045;40.200;44.582;2023-09-07T02:55:16;86276.78;;;21.96;28.21
80682;BME280;70045;40.200;44.582;2023-09-07T02:57:41;86268.25;;;22.07;27.92
80682;BME280;70045;40.200;44.582;2023-09-07T03:00:07;86280.06;;;22.17;28.14
80682;BME280;70045;40.200;44.582;2023-09-07T03:02:32;86285.56;;;22.13;28.25
80682;BME280;70045;40.200;44.582;2023-09-07T03:05:01;86282.66;;;22.11;28.45
80682;BME280;70045;40.200;44.582;2023-09-07T03:07:32;86275.19;;;22.10;28.59
80682;BME280;70045;40.200;44.582;2023-09-07T03:09:57;86285.75;;;22.10;28.35
80682;BME280;70045;40.200;44.582;2023-09-07T03:12:23;86280.75;;;22.12;28.38
80682;BME280;70045;40.200;44.582;2023-09-07T03:14:48;86286.72;;;22.07;28.13
80682;BME280;70045;40.200;44.582;2023-09-07T03:17:17;86289.84;;;22.11;28.48
80682;BME280;70045;40.200;44.582;2023-09-07T03:19:42;86291.56;;;22.14;28.21
80682;BME280;70045;40.200;44.582;2023-09-07T03:22:08;86300.25;;;22.26;28.86
80682;BME280;70045;40.200;44.582;2023-09-07T03:24:33;86303.13;;;22.22;29.00
80682;BME280;70045;40.200;44.582;2023-09-07T03:26:59;86303.06;;;22.16;29.15
80682;BME280;70045;40.200;44.582;2023-09-07T03:29:27;86305.50;;;22.20;28.72
80682;BME280;70045;40.200;44.582;2023-09-07T03:31:52;86303.13;;;22.22;28.73
80682;BME280;70045;40.200;44.582;2023-09-07T03:34:18;86302.16;;;22.25;28.47
80682;BME280;70045;40.200;44.582;2023-09-07T03:36:43;86304.31;;;22.21;28.86
80682;BME280;70045;40.200;44.582;2023-09-07T03:39:08;86303.91;;;22.28;28.88
80682;BME280;70045;40.200;44.582;2023-09-07T03:41:37;86303.97;;;22.40;29.66
80682;BME280;70045;40.200;44.582;2023-09-07T03:44:02;86305.22;;;22.50;29.08
80682;BME280;70045;40.200;44.582;2023-09-07T03:46:27;86310.75;;;22.58;28.77
80682;BME280;70045;40.200;44.582;2023-09-07T03:48:53;86301.66;;;22.64;28.28
80682;BME280;70045;40.200;44.582;2023-09-07T03:51:18;86307.47;;;22.74;28.38
80682;BME280;70045;40.200;44.582;2023-09-07T03:53:46;86314.47;;;22.83;28.86
80682;BME280;70045;40.200;44.582;2023-09-07T03:56:12;86298.84;;;22.79;28.18
80682;BME280;70045;40.200;44.582;2023-09-07T03:58:37;86295.25;;;22.88;28.07
80682;BME280;70045;40.200;44.582;2023-09-07T04:01:02;86315.31;;;23.06;28.11
80682;BME280;70045;40.200;44.582;2023-09-07T04:03:28;86299.88;;;23.04;28.54
80682;BME280;70045;40.200;44.582;2023-09-07T04:05:56;86324.72;;;23.24;29.04
80682;BME280;70045;40.200;44.582;2023-09-07T04:08:21;86317.28;;;23.28;29.15
80682;BME280;70045;40.200;44.582;2023-09-07T04:10:47;86310.53;;;23.38;29.44
80682;BME280;70045;40.200;44.582;2023-09-07T04:13:12;86314.41;;;23.48;29.75
80682;BME280;70045;40.200;44.582;2023-09-07T04:15:44;86308.91;;;23.58;30.90
80682;BME280;70045;40.200;44.582;2023-09-07T04:18:13;86297.13;;;23.64;30.00
80682;BME280;70045;40.200;44.582;2023-09-07T04:20:39;86298.81;;;23.73;29.25
80682;BME280;70045;40.200;44.582;2023-09-07T04:23:04;86302.66;;;23.78;29.79
80682;BME280;70045;40.200;44.582;2023-09-07T04:25:29;86307.97;;;23.83;29.92
80682;BME280;70045;40.200;44.582;2023-09-07T04:27:55;86294.00;;;23.77;31.42
80682;BME280;70045;40.200;44.582;2023-09-07T04:30:23;86297.38;;;23.95;31.86
80682;BME280;70045;40.200;44.582;2023-09-07T04:32:49;86312.06;;;24.01;31.70
80682;BME280;70045;40.200;44.582;2023-09-07T04:35:14;86309.66;;;24.09;31.66
80682;BME280;70045;40.200;44.582;2023-09-07T04:37:42;86307.50;;;24.13;33.16
80682;BME280;70045;40.200;44.582;2023-09-07T04:40:08;86317.59;;;24.09;33.45
80682;BME280;70045;40.200;44.582;2023-09-07T04:42:36;86314.22;;;24.14;33.75
80682;BME280;70045;40.200;44.582;2023-09-07T04:45:02;86310.13;;;24.19;31.60
80682;BME280;70045;40.200;44.582;2023-09-07T04:47:27;86316.13;;;24.31;31.48
80682;BME280;70045;40.200;44.582;2023-09-07T04:49:53;86319.97;;;24.41;31.89
80682;BME280;70045;40.200;44.582;2023-09-07T04:52:18;86330.31;;;24.50;31.39
80682;BME280;70045;40.200;44.582;2023-09-07T04:54:46;86325.50;;;24.54;32.02
80682;BME280;70045;40.200;44.582;2023-09-07T04:57:15;86331.53;;;24.60;30.92
80682;BME280;70045;40.200;44.582;2023-09-07T04:59:41;86332.94;;;24.73;30.42
80682;BME280;70045;40.200;44.582;2023-09-07T05:02:06;86333.63;;;24.85;30.35
80682;BME280;70045;40.200;44.582;2023-09-07T05:04:32;86336.00;;;24.94;30.36
80682;BME280;70045;40.200;44.582;2023-09-07T05:07:00;86330.91;;;25.02;30.74
80682;BME280;70045;40.200;44.582;2023-09-07T05:09:25;86329.94;;;25.05;30.58
80682;BME280;70045;40.200;44.582;2023-09-07T05:11:51;86336.44;;;24.98;30.38
80682;BME280;70045;40.200;44.582;2023-09-07T05:14:16;86327.31;;;24.99;31.05
80682;BME280;70045;40.200;44.582;2023-09-07T05:16:44;86322.69;;;25.11;30.51
80682;BME280;70045;40.200;44.582;2023-09-07T05:19:13;86324.84;;;25.07;30.28
80682;BME280;70045;40.200;44.582;2023-09-07T05:21:39;86312.34;;;25.02;29.95
80682;BME280;70045;40.200;44.582;2023-09-07T05:24:04;86330.59;;;25.28;29.96
80682;BME280;70045;40.200;44.582;2023-09-07T05:26:30;86319.50;;;25.29;30.18
80682;BME280;70045;40.200;44.582;2023-09-07T05:28:55;86317.06;;;25.31;30.19
80682;BME280;70045;40.200;44.582;2023-09-07T05:31:23;86324.03;;;25.34;30.27
80682;BME280;70045;40.200;44.582;2023-09-07T05:33:49;86319.59;;;25.48;29.92
80682;BME280;70045;40.200;44.582;2023-09-07T05:36:14;86320.34;;;25.49;30.56
80682;BME280;70045;40.200;44.582;2023-09-07T05:38:39;86323.22;;;25.51;30.25
80682;BME280;70045;40.200;44.582;2023-09-07T05:41:06;86328.97;;;25.61;30.29
80682;BME280;70045;40.200;44.582;2023-09-07T05:43:35;86320.16;;;25.77;29.84
80682;BME280;70045;40.200;44.582;2023-09-07T05:46:00;86317.94;;;25.87;29.38
80682;BME280;70045;40.200;44.582;2023-09-07T05:48:26;86322.19;;;26.01;29.21
80682;BME280;70045;40.200;44.582;2023-09-07T05:50:51;86328.44;;;26.09;28.98
80682;BME280;70045;40.200;44.582;2023-09-07T05:53:19;86326.63;;;26.23;28.65
80682;BME280;70045;40.200;44.582;2023-09-07T05:55:47;86323.38;;;26.36;28.18
80682;BME280;70045;40.200;44.582;2023-09-07T05:58:13;86331.47;;;26.49;28.02
80682;BME280;70045;40.200;44.582;2023-09-07T06:00:38;86328.25;;;26.57;27.95
80682;BME280;70045;40.200;44.582;2023-09-07T06:03:04;86333.53;;;26.62;28.59
80682;BME280;70045;40.200;44.582;2023-09-07T06:05:30;86336.16;;;26.68;29.38
80682;BME280;70045;40.200;44.582;2023-09-07T06:07:58;86338.97;;;26.76;29.35
80682;BME280;70045;40.200;44.582;2023-09-07T06:10:23;86339.13;;;26.83;29.53
80682;BME280;70045;40.200;44.582;2023-09-07T06:12:49;86337.25;;;26.78;29.77
80682;BME280;70045;40.200;44.582;2023-09-07T06:15:14;86343.81;;;26.77;30.67
80682;BME280;70045;40.200;44.582;2023-09-07T06:17:40;86344.81;;;26.74;30.67
80682;BME280;70045;40.200;44.582;2023-09-07T06:20:09;86337.72;;;26.82;30.83
80682;BME280;70045;40.200;44.582;2023-09-07T06:22:34;86343.69;;;26.89;31.14
80682;BME280;70045;40.200;44.582;2023-09-07T06:25:00;86342.69;;;26.92;30.61
80682;BME280;70045;40.200;44.582;2023-09-07T06:27:25;86339.81;;;26.90;30.20
80682;BME280;70045;40.200;44.582;2023-09-07T06:29:50;86346.28;;;26.94;30.91
80682;BME280;70045;40.200;44.582;2023-09-07T06:32:18;86342.53;;;26.84;30.95
80682;BME280;70045;40.200;44.582;2023-09-07T06:34:44;86352.91;;;26.88;31.42
80682;BME280;70045;40.200;44.582;2023-09-07T06:37:11;86350.88;;;26.94;30.73
80682;BME280;70045;40.200;44.582;2023-09-07T06:39:36;86349.53;;;27.06;30.54
80682;BME280;70045;40.200;44.582;2023-09-07T06:42:02;86349.75;;;27.08;30.81
80682;BME280;70045;40.200;44.582;2023-09-07T06:44:30;86353.31;;;27.16;31.12
80682;BME280;70045;40.200;44.582;2023-09-07T06:46:56;86352.09;;;27.17;30.84
80682;BME280;70045;40.200;44.582;2023-09-07T06:49:21;86351.63;;;27.13;30.79
80682;BME280;70045;40.200;44.582;2023-09-07T06:51:47;86345.31;;;27.16;31.47
80682;BME280;70045;40.200;44.582;2023-09-07T06:54:12;86349.53;;;27.31;30.85
80682;BME280;70045;40.200;44.582;2023-09-07T06:56:40;86335.56;;;27.24;30.70
80682;BME280;70045;40.200;44.582;2023-09-07T06:59:06;86326.09;;;27.29;30.97
80682;BME280;70045;40.200;44.582;2023-09-07T07:01:31;86333.22;;;27.40;30.79
80682;BME280;70045;40.200;44.582;2023-09-07T07:03:56;86332.50;;;27.58;30.41
80682;BME280;70045;40.200;44.582;2023-09-07T07:06:23;86329.09;;;27.77;30.65
80682;BME280;70045;40.200;44.582;2023-09-07T07:08:52;86320.03;;;27.86;29.93
80682;BME280;70045;40.200;44.582;2023-09-07T07:11:17;86323.63;;;27.88;30.28
80682;BME280;70045;40.200;44.582;2023-09-07T07:13:42;86325.53;;;27.93;30.15
80682;BME280;70045;40.200;44.582;2023-09-07T07:16:08;86324.34;;;28.08;30.10
80682;BME280;70045;40.200;44.582;2023-09-07T07:18:33;86320.06;;;28.18;30.04
80682;BME280;70045;40.200;44.582;2023-09-07T07:21:01;86319.88;;;28.29;29.63
80682;BME280;70045;40.200;44.582;2023-09-07T07:23:27;86318.66;;;28.30;29.36
80682;BME280;70045;40.200;44.582;2023-09-07T07:25:52;86323.34;;;28.24;29.10
80682;BME280;70045;40.200;44.582;2023-09-07T07:28:18;86311.81;;;28.35;29.68
80682;BME280;70045;40.200;44.582;2023-09-07T07:30:43;86311.53;;;28.39;28.89
80682;BME280;70045;40.200;44.582;2023-09-07T07:33:12;86310.09;;;28.51;28.95
80682;BME280;70045;40.200;44.582;2023-09-07T07:35:37;86302.03;;;28.57;28.70
80682;BME280;70045;40.200;44.582;2023-09-07T07:38:04;86303.16;;;28.61;28.47
80682;BME280;70045;40.200;44.582;2023-09-07T07:40:30;86299.06;;;28.60;28.74
80682;BME280;70045;40.200;44.582;2023-09-07T07:42:56;86304.81;;;28.78;28.15
80682;BME280;70045;40.200;44.582;2023-09-07T07:45:24;86298.16;;;28.84;28.55
80682;BME280;70045;40.200;44.582;2023-09-07T07:47:50;86296.13;;;28.90;27.83
80682;BME280;70045;40.200;44.582;2023-09-07T07:50:15;86295.81;;;28.94;27.88
80682;BME280;70045;40.200;44.582;2023-09-07T07:52:41;86283.47;;;28.78;27.93
80682;BME280;70045;40.200;44.582;2023-09-07T07:55:07;86290.88;;;28.98;27.81
80682;BME280;70045;40.200;44.582;2023-09-07T07:57:35;86293.84;;;28.95;27.16
80682;BME280;70045;40.200;44.582;2023-09-07T08:00:01;86294.34;;;28.93;27.12
80682;BME280;70045;40.200;44.582;2023-09-07T08:02:26;86285.13;;;28.94;27.24
80682;BME280;70045;40.200;44.582;2023-09-07T08:04:52;86284.19;;;29.05;27.13
80682;BME280;70045;40.200;44.582;2023-09-07T08:07:17;86277.72;;;29.00;27.44
80682;BME280;70045;40.200;44.582;2023-09-07T08:09:45;86281.38;;;29.37;27.28
80682;BME280;70045;40.200;44.582;2023-09-07T08:12:11;86278.78;;;29.58;26.83
80682;BME280;70045;40.200;44.582;2023-09-07T08:14:36;86271.16;;;29.62;26.46
80682;BME280;70045;40.200;44.582;2023-09-07T08:17:02;86283.16;;;29.82;26.68
80682;BME280;70045;40.200;44.582;2023-09-07T08:19:27;86284.94;;;30.01;26.51
80682;BME280;70045;40.200;44.582;2023-09-07T08:21:57;86275.38;;;30.06;26.15
80682;BME280;70045;40.200;44.582;2023-09-07T08:24:23;86271.91;;;30.18;26.37
80682;BME280;70045;40.200;44.582;2023-09-07T08:26:48;86265.97;;;30.12;25.72
80682;BME280;70045;40.200;44.582;2023-09-07T08:29:13;86262.97;;;30.16;25.93
80682;BME280;70045;40.200;44.582;2023-09-07T08:31:39;86266.78;;;30.41;26.15
80682;BME280;70045;40.200;44.582;2023-09-07T08:34:08;86277.00;;;30.79;25.18
80682;BME280;70045;40.200;44.582;2023-09-07T08:36:33;86261.91;;;31.19;24.34
80682;BME280;70045;40.200;44.582;2023-09-07T08:38:58;86252.53;;;31.85;23.51
80682;BME280;70045;40.200;44.582;2023-09-07T08:41:24;86257.28;;;32.61;23.08
80682;BME280;70045;40.200;44.582;2023-09-07T08:43:52;86262.03;;;33.32;22.40
80682;BME280;70045;40.200;44.582;2023-09-07T08:46:22;86250.25;;;33.76;21.39
80682;BME280;70045;40.200;44.582;2023-09-07T08:48:49;86248.56;;;34.29;20.89
80682;BME280;70045;40.200;44.582;2023-09-07T08:51:18;86254.66;;;34.80;20.22
80682;BME280;70045;40.200;44.582;2023-09-07T08:53:45;86253.47;;;35.33;19.99
80682;BME280;70045;40.200;44.582;2023-09-07T08:56:11;86246.78;;;35.69;19.65
80682;BME280;70045;40.200;44.582;2023-09-07T08:58:39;86250.56;;;36.01;19.51
80682;BME280;70045;40.200;44.582;2023-09-07T09:01:05;86241.50;;;36.06;19.21
80682;BME280;70045;40.200;44.582;2023-09-07T09:03:30;86243.22;;;36.38;18.81
80682;BME280;70045;40.200;44.582;2023-09-07T09:05:56;86238.56;;;36.76;18.79
80682;BME280;70045;40.200;44.582;2023-09-07T09:08:22;86233.81;;;37.04;18.21
80682;BME280;70045;40.200;44.582;2023-09-07T09:11:01;86246.25;;;37.46;17.15
80682;BME280;70045;40.200;44.582;2023-09-07T09:13:29;86248.81;;;37.63;17.83
80682;BME280;70045;40.200;44.582;2023-09-07T09:15:55;86240.28;;;37.77;17.24
80682;BME280;70045;40.200;44.582;2023-09-07T09:18:20;86246.97;;;38.15;17.22
80682;BME280;70045;40.200;44.582;2023-09-07T09:20:45;86247.03;;;38.36;16.54
80682;BME280;70045;40.200;44.582;2023-09-07T09:23:14;86236.31;;;38.48;16.00
80682;BME280;70045;40.200;44.582;2023-09-07T09:25:40;86236.47;;;38.60;16.27
80682;BME280;70045;40.200;44.582;2023-09-07T09:28:08;86242.94;;;38.76;16.18
80682;BME280;70045;40.200;44.582;2023-09-07T09:30:34;86224.25;;;39.12;15.98
80682;BME280;70045;40.200;44.582;2023-09-07T09:33:01;86227.59;;;39.44;15.85
80682;BME280;70045;40.200;44.582;2023-09-07T09:35:29;86222.56;;;39.71;15.42
80682;BME280;70045;40.200;44.582;2023-09-07T09:37:55;86231.41;;;39.94;15.61
80682;BME280;70045;40.200;44.582;2023-09-07T09:40:20;86223.56;;;40.09;15.07
80682;BME280;70045;40.200;44.582;2023-09-07T09:42:46;86221.88;;;40.38;15.08
80682;BME280;70045;40.200;44.582;2023-09-07T09:45:12;86220.06;;;40.31;14.44
80682;BME280;70045;40.200;44.582;2023-09-07T09:47:41;86220.47;;;40.60;14.19
80682;BME280;70045;40.200;44.582;2023-09-07T09:50:11;86228.91;;;40.88;13.50
80682;BME280;70045;40.200;44.582;2023-09-07T09:52:37;86214.38;;;40.83;13.94
80682;BME280;70045;40.200;44.582;2023-09-07T09:55:06;86218.50;;;40.96;13.10
80682;BME280;70045;40.200;44.582;2023-09-07T09:57:32;86211.69;;;41.56;13.86
80682;BME280;70045;40.200;44.582;2023-09-07T10:00:01;86212.50;;;42.08;13.28
80682;BME280;70045;40.200;44.582;2023-09-07T10:02:27;86207.91;;;42.25;13.18
80682;BME280;70045;40.200;44.582;2023-09-07T10:04:52;86202.47;;;42.25;12.78
80682;BME280;70045;40.200;44.582;2023-09-07T10:07:19;86200.91;;;41.96;12.45
80682;BME280;70045;40.200;44.582;2023-09-07T10:09:44;86205.28;;;42.27;12.50
80682;BME280;70045;40.200;44.582;2023-09-07T10:12:13;86204.69;;;42.28;12.56
80682;BME280;70045;40.200;44.582;2023-09-07T10:14:39;86201.97;;;42.28;12.35
80682;BME280;70045;40.200;44.582;2023-09-07T10:17:05;86195.19;;;42.55;12.85
80682;BME280;70045;40.200;44.582;2023-09-07T10:19:30;86190.88;;;42.92;12.29
80682;BME280;70045;40.200;44.582;2023-09-07T10:21:56;86193.25;;;42.97;11.90
80682;BME280;70045;40.200;44.582;2023-09-07T10:24:33;86180.94;;;42.96;11.63
80682;BME280;70045;40.200;44.582;2023-09-07T10:27:04;86188.31;;;42.94;11.37
80682;BME280;70045;40.200;44.582;2023-09-07T10:29:41;86170.13;;;43.12;11.11
80682;BME280;70045;40.200;44.582;2023-09-07T10:32:08;86177.97;;;43.61;10.24
80682;BME280;70045;40.200;44.582;2023-09-07T10:34:37;86182.31;;;43.67;10.62
80682;BME280;70045;40.200;44.582;2023-09-07T10:37:03;86177.53;;;43.81;10.71
80682;BME280;70045;40.200;44.582;2023-09-07T10:39:32;86159.16;;;43.97;10.24
80682;BME280;70045;40.200;44.582;2023-09-07T10:41:57;86165.09;;;44.08;11.22
80682;BME280;70045;40.200;44.582;2023-09-07T10:44:26;86166.59;;;44.41;9.99
80682;BME280;70045;40.200;44.582;2023-09-07T10:46:56;86168.22;;;44.62;10.14
80682;BME280;70045;40.200;44.582;2023-09-07T10:49:23;86163.00;;;44.84;9.67
80682;BME280;70045;40.200;44.582;2023-09-07T10:51:48;86158.53;;;44.74;9.61
80682;BME280;70045;40.200;44.582;2023-09-07T10:54:17;86156.47;;;45.07;9.52
80682;BME280;70045;40.200;44.582;2023-09-07T10:56:45;86152.22;;;45.36;9.41
80682;BME280;70045;40.200;44.582;2023-09-07T10:59:15;86147.81;;;45.62;8.84
80682;BME280;70045;40.200;44.582;2023-09-07T11:01:41;86146.09;;;45.71;9.43
80682;BME280;70045;40.200;44.582;2023-09-07T11:04:07;86141.25;;;45.70;8.21
80682;BME280;70045;40.200;44.582;2023-09-07T11:06:32;86147.34;;;45.68;9.32
80682;BME280;70045;40.200;44.582;2023-09-07T11:09:02;86130.28;;;44.86;9.37
80682;BME280;70045;40.200;44.582;2023-09-07T11:11:34;86140.06;;;45.57;9.51
80682;BME280;70045;40.200;44.582;2023-09-07T11:14:04;86126.81;;;46.03;9.67
80682;BME280;70045;40.200;44.582;2023-09-07T11:16:30;86126.81;;;46.21;9.28
80682;BME280;70045;40.200;44.582;2023-09-07T11:18:56;86111.63;;;46.00;9.35
80682;BME280;70045;40.200;44.582;2023-09-07T11:21:22;86119.75;;;46.34;8.87
80682;BME280;70045;40.200;44.582;2023-09-07T11:23:52;86119.03;;;46.33;8.20
80682;BME280;70045;40.200;44.582;2023-09-07T11:26:17;86114.03;;;45.92;8.64
80682;BME280;70045;40.200;44.582;2023-09-07T11:28:46;86111.47;;;46.14;9.12
80682;BME280;70045;40.200;44.582;2023-09-07T11:31:11;86106.41;;;46.44;8.49
80682;BME280;70045;40.200;44.582;2023-09-07T11:33:37;86108.88;;;47.14;7.68
80682;BME280;70045;40.200;44.582;2023-09-07T11:36:05;86101.16;;;46.88;7.04
80682;BME280;70045;40.200;44.582;2023-09-07T11:38:36;86091.81;;;46.57;7.17
80682;BME280;70045;40.200;44.582;2023-09-07T11:41:02;86091.97;;;46.62;6.76
80682;BME280;70045;40.200;44.582;2023-09-07T11:43:27;86089.47;;;45.94;7.36
80682;BME280;70045;40.200;44.582;2023-09-07T11:45:53;86085.38;;;46.69;7.36
80682;BME280;70045;40.200;44.582;2023-09-07T11:48:21;86086.22;;;47.33;7.23
80682;BME280;70045;40.200;44.582;2023-09-07T11:50:46;86087.38;;;47.26;7.29
80682;BME280;70045;40.200;44.582;2023-09-07T11:53:12;86076.25;;;47.64;7.23
80682;BME280;70045;40.200;44.582;2023-09-07T11:55:37;86081.00;;;47.86;7.23
80682;BME280;70045;40.200;44.582;2023-09-07T11:58:06;86080.44;;;47.89;6.78
80682;BME280;70045;40.200;44.582;2023-09-07T12:00:34;86073.22;;;48.00;6.46
80682;BME280;70045;40.200;44.582;2023-09-07T12:02:59;86082.50;;;48.35;6.61
80682;BME280;70045;40.200;44.582;2023-09-07T12:05:25;86075.69;;;48.36;6.75
80682;BME280;70045;40.200;44.582;2023-09-07T12:07:54;86073.09;;;47.96;6.77
80682;BME280;70045;40.200;44.582;2023-09-07T12:10:19;86070.34;;;48.18;6.69
80682;BME280;70045;40.200;44.582;2023-09-07T12:12:47;86065.81;;;48.29;6.14
80682;BME280;70045;40.200;44.582;2023-09-07T12:15:13;86053.88;;;48.42;6.25
80682;BME280;70045;40.200;44.582;2023-09-07T12:17:39;86067.44;;;48.36;6.18
80682;BME280;70045;40.200;44.582;2023-09-07T12:20:05;86065.47;;;48.17;6.12
80682;BME280;70045;40.200;44.582;2023-09-07T12:22:30;86064.78;;;47.94;6.42
80682;BME280;70045;40.200;44.582;2023-09-07T12:24:58;86062.31;;;48.02;6.27
80682;BME280;70045;40.200;44.582;2023-09-07T12:27:27;86066.06;;;47.91;5.88
80682;BME280;70045;40.200;44.582;2023-09-07T12:29:53;86064.91;;;47.54;6.43
80682;BME280;70045;40.200;44.582;2023-09-07T12:32:19;86059.03;;;47.86;6.07
80682;BME280;70045;40.200;44.582;2023-09-07T12:34:44;86056.03;;;48.46;6.37
80682;BME280;70045;40.200;44.582;2023-09-07T12:37:12;86058.97;;;48.78;6.13
80682;BME280;70045;40.200;44.582;2023-09-07T12:39:38;86061.19;;;49.08;5.71
80682;BME280;70045;40.200;44.582;2023-09-07T12:42:03;86055.47;;;48.76;5.89
80682;BME280;70045;40.200;44.582;2023-09-07T12:44:29;86050.03;;;49.04;6.15
80682;BME280;70045;40.200;44.582;2023-09-07T12:46:54;86053.78;;;48.91;6.19
80682;BME280;70045;40.200;44.582;2023-09-07T12:49:22;86047.47;;;49.10;5.62